VOE2GG LFLL-LFBI
Flight info
| Callsign | VOE2GG |
|---|---|
| Flight time | 0h 44m |
| Altitude | 34000 |
| Route | BELEP DCT TIS DCT VALKU DCT LARON DCT GUSON R66 BALAN |
| Aircraft | A320/M-SDFGHIJ1RWY/LB1 |
Departure
| Time | 2026-04-12 06:05 |
|---|---|
| Airport | Lyon Saint-Exupéry Airport (LFLL) |
Arrival
| Time | 2026-04-12 06:49 |
|---|---|
| Airport | Poitiers-Biard Airport (LFBI) |
| Time | Latitude | Longitude | Altitude | Speed | Heading |
|---|---|---|---|---|---|
| 2026-04-12 05:43 | 45.71752 | 5.07936 | 797 ft | 0 kts | 263° |
| 2026-04-12 05:57 | 45.71752 | 5.07938 | 796 ft | 2 kts | 263° |
| 2026-04-12 05:58 | 45.71754 | 5.07974 | 796 ft | 4 kts | 274° |
| 2026-04-12 05:58 | 45.71750 | 5.08012 | 797 ft | 4 kts | 287° |
| 2026-04-12 05:58 | 45.71740 | 5.08048 | 797 ft | 4 kts | 296° |
| 2026-04-12 05:58 | 45.71731 | 5.08081 | 797 ft | 4 kts | 265° |
| 2026-04-12 05:59 | 45.71740 | 5.08109 | 797 ft | 2 kts | 218° |
| 2026-04-12 05:59 | 45.71760 | 5.08131 | 797 ft | 3 kts | 218° |
| 2026-04-12 05:59 | 45.71762 | 5.08133 | 797 ft | 1 kts | 218° |
| 2026-04-12 06:01 | 45.71763 | 5.08134 | 797 ft | 0 kts | 218° |
| 2026-04-12 06:02 | 45.71752 | 5.08122 | 797 ft | 11 kts | 214° |
| 2026-04-12 06:02 | 45.71689 | 5.08172 | 800 ft | 7 kts | 97° |
| 2026-04-12 06:03 | 45.71676 | 5.08253 | 801 ft | 10 kts | 102° |
| 2026-04-12 06:03 | 45.71685 | 5.08430 | 801 ft | 17 kts | 86° |
| 2026-04-12 06:03 | 45.71617 | 5.08511 | 803 ft | 12 kts | 155° |
| 2026-04-12 06:03 | 45.71602 | 5.08644 | 806 ft | 21 kts | 82° |
| 2026-04-12 06:04 | 45.71614 | 5.08815 | 813 ft | 23 kts | 86° |
| 2026-04-12 06:04 | 45.71633 | 5.08966 | 813 ft | 8 kts | 32° |
| 2026-04-12 06:04 | 45.71677 | 5.08961 | 813 ft | 12 kts | 355° |
| 2026-04-12 06:04 | 45.72021 | 5.08918 | 811 ft | 85 kts | 355° |
| 2026-04-12 06:05 | 45.72823 | 5.08820 | 792 ft | 143 kts | 355° |
| 2026-04-12 06:05 | 45.73897 | 5.08689 | 1199 ft | 153 kts | 353° |
| 2026-04-12 06:05 | 45.74945 | 5.08513 | 1943 ft | 151 kts | 355° |
| 2026-04-12 06:05 | 45.75997 | 5.08385 | 2596 ft | 154 kts | 356° |
| 2026-04-12 06:06 | 45.77129 | 5.08256 | 2962 ft | 174 kts | 356° |
| 2026-04-12 06:06 | 45.78413 | 5.08110 | 3268 ft | 196 kts | 356° |
| 2026-04-12 06:06 | 45.79845 | 5.07944 | 3582 ft | 220 kts | 356° |
| 2026-04-12 06:06 | 45.81412 | 5.07760 | 4271 ft | 229 kts | 355° |
| 2026-04-12 06:07 | 45.83070 | 5.07562 | 4805 ft | 249 kts | 355° |
| 2026-04-12 06:07 | 45.84831 | 5.07336 | 5519 ft | 257 kts | 352° |
| 2026-04-12 06:07 | 45.86563 | 5.06573 | 6274 ft | 265 kts | 330° |
| 2026-04-12 06:07 | 45.88018 | 5.04943 | 7048 ft | 268 kts | 309° |
| 2026-04-12 06:08 | 45.88976 | 5.02653 | 7827 ft | 270 kts | 288° |
| 2026-04-12 06:08 | 45.89300 | 5.00001 | 8631 ft | 272 kts | 267° |
| 2026-04-12 06:08 | 45.88933 | 4.97334 | 9428 ft | 275 kts | 246° |
| 2026-04-12 06:08 | 45.88014 | 4.94965 | 10245 ft | 276 kts | 238° |
| 2026-04-12 06:09 | 45.86975 | 4.92519 | 10610 ft | 297 kts | 238° |
| 2026-04-12 06:09 | 45.85864 | 4.89899 | 11022 ft | 312 kts | 237° |
| 2026-04-12 06:09 | 45.84745 | 4.87257 | 11772 ft | 315 kts | 237° |
| 2026-04-12 06:09 | 45.83609 | 4.84563 | 12582 ft | 316 kts | 237° |
| 2026-04-12 06:10 | 45.82473 | 4.81857 | 13391 ft | 317 kts | 237° |
| 2026-04-12 06:10 | 45.81337 | 4.79135 | 14161 ft | 318 kts | 237° |
| 2026-04-12 06:10 | 45.80195 | 4.76390 | 14827 ft | 321 kts | 237° |
| 2026-04-12 06:10 | 45.79092 | 4.73582 | 15454 ft | 326 kts | 243° |
| 2026-04-12 06:11 | 45.78381 | 4.70522 | 16078 ft | 333 kts | 255° |
| 2026-04-12 06:11 | 45.78170 | 4.67178 | 16696 ft | 341 kts | 267° |
| 2026-04-12 06:11 | 45.78253 | 4.63758 | 17322 ft | 344 kts | 267° |
| 2026-04-12 06:11 | 45.78329 | 4.60308 | 17938 ft | 348 kts | 267° |
| 2026-04-12 06:12 | 45.78399 | 4.56867 | 18525 ft | 351 kts | 266° |
| 2026-04-12 06:12 | 45.78469 | 4.53347 | 19037 ft | 355 kts | 266° |
| 2026-04-12 06:12 | 45.78535 | 4.49792 | 19547 ft | 358 kts | 266° |
| 2026-04-12 06:12 | 45.78595 | 4.46192 | 20054 ft | 362 kts | 266° |
| 2026-04-12 06:13 | 45.78657 | 4.42567 | 20569 ft | 366 kts | 266° |
| 2026-04-12 06:13 | 45.78723 | 4.38903 | 21085 ft | 369 kts | 266° |
| 2026-04-12 06:13 | 45.78792 | 4.35197 | 21599 ft | 373 kts | 266° |
| 2026-04-12 06:13 | 45.78858 | 4.31515 | 22121 ft | 377 kts | 266° |
| 2026-04-12 06:14 | 45.78923 | 4.27755 | 22730 ft | 378 kts | 266° |
| 2026-04-12 06:14 | 45.78987 | 4.23962 | 23257 ft | 381 kts | 266° |
| 2026-04-12 06:14 | 45.79050 | 4.20139 | 23738 ft | 384 kts | 266° |
| 2026-04-12 06:14 | 45.79113 | 4.16292 | 24141 ft | 387 kts | 266° |
| 2026-04-12 06:15 | 45.79307 | 4.12459 | 24551 ft | 394 kts | 273° |
| 2026-04-12 06:15 | 45.79885 | 4.08579 | 24956 ft | 399 kts | 277° |
| 2026-04-12 06:15 | 45.80509 | 4.04682 | 25356 ft | 402 kts | 277° |
| 2026-04-12 06:15 | 45.81132 | 4.00765 | 25744 ft | 404 kts | 277° |
| 2026-04-12 06:16 | 45.81753 | 3.96827 | 26131 ft | 406 kts | 276° |
| 2026-04-12 06:16 | 45.82374 | 3.92859 | 26507 ft | 408 kts | 276° |
| 2026-04-12 06:16 | 45.82985 | 3.88931 | 26909 ft | 410 kts | 276° |
| 2026-04-12 06:16 | 45.83609 | 3.84923 | 27285 ft | 412 kts | 276° |
| 2026-04-12 06:17 | 45.84235 | 3.80901 | 27644 ft | 414 kts | 276° |
| 2026-04-12 06:17 | 45.84863 | 3.76859 | 28004 ft | 416 kts | 276° |
| 2026-04-12 06:17 | 45.85494 | 3.72786 | 28351 ft | 418 kts | 276° |
| 2026-04-12 06:17 | 45.86128 | 3.68696 | 28688 ft | 420 kts | 276° |
| 2026-04-12 06:18 | 45.86768 | 3.64570 | 29020 ft | 422 kts | 276° |
| 2026-04-12 06:18 | 45.87397 | 3.60493 | 29357 ft | 424 kts | 276° |
| 2026-04-12 06:18 | 45.88035 | 3.56345 | 29688 ft | 426 kts | 275° |
| 2026-04-12 06:18 | 45.88679 | 3.52173 | 30006 ft | 428 kts | 276° |
| 2026-04-12 06:19 | 45.89344 | 3.47984 | 30289 ft | 431 kts | 276° |
| 2026-04-12 06:19 | 45.90026 | 3.43776 | 30561 ft | 432 kts | 276° |
| 2026-04-12 06:19 | 45.90706 | 3.39623 | 30831 ft | 433 kts | 276° |
| 2026-04-12 06:19 | 45.91393 | 3.35409 | 31105 ft | 433 kts | 276° |
| 2026-04-12 06:20 | 45.92074 | 3.31189 | 31366 ft | 434 kts | 276° |
| 2026-04-12 06:20 | 45.92751 | 3.26960 | 31701 ft | 432 kts | 275° |
| 2026-04-12 06:20 | 45.93417 | 3.22771 | 32031 ft | 429 kts | 275° |
| 2026-04-12 06:20 | 45.94072 | 3.18622 | 32104 ft | 420 kts | 275° |
| 2026-04-12 06:21 | 45.94708 | 3.14634 | 32128 ft | 409 kts | 274° |
| 2026-04-12 06:21 | 45.95335 | 3.10665 | 32108 ft | 406 kts | 274° |
| 2026-04-12 06:21 | 45.96566 | 3.02769 | 32109 ft | 404 kts | 274° |
| 2026-04-12 06:22 | 45.97791 | 2.94859 | 32109 ft | 404 kts | 274° |
| 2026-04-12 06:22 | 45.99016 | 2.86967 | 32109 ft | 404 kts | 274° |
| 2026-04-12 06:23 | 46.00771 | 2.79240 | 32101 ft | 419 kts | 289° |
| 2026-04-12 06:23 | 46.03559 | 2.71797 | 32106 ft | 421 kts | 289° |
| 2026-04-12 06:24 | 46.06326 | 2.64393 | 32094 ft | 422 kts | 289° |
| 2026-04-12 06:24 | 46.07712 | 2.60657 | 31963 ft | 420 kts | 289° |
| 2026-04-12 06:24 | 46.09082 | 2.56973 | 31706 ft | 415 kts | 289° |
| 2026-04-12 06:25 | 46.10442 | 2.53309 | 31444 ft | 411 kts | 289° |
| 2026-04-12 06:25 | 46.11768 | 2.49737 | 31021 ft | 407 kts | 289° |
| 2026-04-12 06:25 | 46.13097 | 2.46138 | 30524 ft | 404 kts | 289° |
| 2026-04-12 06:25 | 46.14413 | 2.42563 | 30050 ft | 402 kts | 289° |
| 2026-04-12 06:26 | 46.15722 | 2.39001 | 29514 ft | 399 kts | 288° |
| 2026-04-12 06:26 | 46.17017 | 2.35479 | 29049 ft | 396 kts | 287° |
| 2026-04-12 06:26 | 46.18301 | 2.31991 | 28594 ft | 392 kts | 287° |
| 2026-04-12 06:26 | 46.19574 | 2.28536 | 28150 ft | 388 kts | 287° |
| 2026-04-12 06:27 | 46.20831 | 2.25106 | 27713 ft | 383 kts | 287° |
| 2026-04-12 06:27 | 46.22067 | 2.21720 | 27280 ft | 380 kts | 287° |
| 2026-04-12 06:27 | 46.23276 | 2.18396 | 26861 ft | 376 kts | 287° |
| 2026-04-12 06:27 | 46.24462 | 2.15049 | 26435 ft | 372 kts | 286° |
| 2026-04-12 06:28 | 46.25615 | 2.11722 | 26006 ft | 369 kts | 286° |
| 2026-04-12 06:28 | 46.26749 | 2.08413 | 25576 ft | 366 kts | 286° |
| 2026-04-12 06:28 | 46.27872 | 2.05130 | 25132 ft | 363 kts | 286° |
| 2026-04-12 06:28 | 46.28991 | 2.01866 | 24687 ft | 361 kts | 286° |
| 2026-04-12 06:29 | 46.30102 | 1.98619 | 24259 ft | 359 kts | 286° |
| 2026-04-12 06:29 | 46.31208 | 1.95383 | 23771 ft | 358 kts | 286° |
| 2026-04-12 06:29 | 46.32311 | 1.92158 | 23256 ft | 356 kts | 286° |
| 2026-04-12 06:29 | 46.33394 | 1.88997 | 22793 ft | 353 kts | 287° |
| 2026-04-12 06:30 | 46.34482 | 1.85820 | 22334 ft | 350 kts | 287° |
| 2026-04-12 06:30 | 46.35560 | 1.82671 | 21897 ft | 347 kts | 287° |
| 2026-04-12 06:30 | 46.36630 | 1.79542 | 21433 ft | 345 kts | 287° |
| 2026-04-12 06:30 | 46.37698 | 1.76425 | 20763 ft | 345 kts | 288° |
| 2026-04-12 06:31 | 46.38768 | 1.73350 | 19861 ft | 345 kts | 289° |
| 2026-04-12 06:31 | 46.39858 | 1.70247 | 19105 ft | 342 kts | 290° |
| 2026-04-12 06:31 | 46.40926 | 1.67239 | 18674 ft | 329 kts | 291° |
| 2026-04-12 06:31 | 46.41952 | 1.64350 | 18261 ft | 316 kts | 291° |
| 2026-04-12 06:32 | 46.42938 | 1.61561 | 17860 ft | 303 kts | 291° |
| 2026-04-12 06:32 | 46.43864 | 1.58919 | 17496 ft | 290 kts | 291° |
| 2026-04-12 06:32 | 46.44768 | 1.56314 | 17148 ft | 288 kts | 291° |
| 2026-04-12 06:32 | 46.45663 | 1.53712 | 16797 ft | 288 kts | 291° |
| 2026-04-12 06:33 | 46.46559 | 1.51109 | 16441 ft | 288 kts | 291° |
| 2026-04-12 06:33 | 46.47458 | 1.48510 | 16094 ft | 287 kts | 291° |
| 2026-04-12 06:33 | 46.48354 | 1.45922 | 15755 ft | 288 kts | 291° |
| 2026-04-12 06:33 | 46.49253 | 1.43327 | 15415 ft | 287 kts | 292° |
| 2026-04-12 06:34 | 46.50152 | 1.40739 | 15064 ft | 287 kts | 292° |
| 2026-04-12 06:34 | 46.51041 | 1.38182 | 14721 ft | 287 kts | 292° |
| 2026-04-12 06:34 | 46.51940 | 1.35591 | 14374 ft | 287 kts | 292° |
| 2026-04-12 06:34 | 46.52838 | 1.32995 | 14029 ft | 287 kts | 292° |
| 2026-04-12 06:35 | 46.54617 | 1.27830 | 13302 ft | 287 kts | 292° |
| 2026-04-12 06:35 | 46.55506 | 1.25243 | 12949 ft | 286 kts | 293° |
| 2026-04-12 06:35 | 46.56392 | 1.22660 | 12608 ft | 285 kts | 293° |
| 2026-04-12 06:36 | 46.57274 | 1.20087 | 12258 ft | 284 kts | 293° |
| 2026-04-12 06:36 | 46.58154 | 1.17524 | 11888 ft | 283 kts | 293° |
| 2026-04-12 06:36 | 46.59034 | 1.14964 | 11523 ft | 282 kts | 294° |
| 2026-04-12 06:36 | 46.59909 | 1.12409 | 11167 ft | 281 kts | 294° |
| 2026-04-12 06:37 | 46.60773 | 1.09889 | 10806 ft | 281 kts | 294° |
| 2026-04-12 06:37 | 46.61646 | 1.07344 | 10449 ft | 280 kts | 294° |
| 2026-04-12 06:37 | 46.62515 | 1.04806 | 10073 ft | 280 kts | 294° |
| 2026-04-12 06:37 | 46.63380 | 1.02267 | 9672 ft | 279 kts | 295° |
| 2026-04-12 06:38 | 46.64231 | 0.99773 | 9297 ft | 277 kts | 295° |
| 2026-04-12 06:38 | 46.65085 | 0.97263 | 8910 ft | 275 kts | 295° |
| 2026-04-12 06:38 | 46.65934 | 0.94769 | 8533 ft | 273 kts | 295° |
| 2026-04-12 06:38 | 46.66776 | 0.92295 | 8142 ft | 272 kts | 295° |
| 2026-04-12 06:39 | 46.67613 | 0.89832 | 7748 ft | 270 kts | 295° |
| 2026-04-12 06:39 | 46.68444 | 0.87380 | 7355 ft | 269 kts | 295° |
| 2026-04-12 06:39 | 46.69269 | 0.84941 | 6947 ft | 268 kts | 296° |
| 2026-04-12 06:39 | 46.70092 | 0.82509 | 6557 ft | 267 kts | 296° |
| 2026-04-12 06:40 | 46.70904 | 0.80110 | 6134 ft | 266 kts | 296° |
| 2026-04-12 06:40 | 46.71721 | 0.77698 | 5727 ft | 264 kts | 296° |
| 2026-04-12 06:40 | 46.72536 | 0.75292 | 5313 ft | 262 kts | 296° |
| 2026-04-12 06:40 | 46.73348 | 0.72893 | 4802 ft | 264 kts | 296° |
| 2026-04-12 06:41 | 46.74137 | 0.70566 | 4664 ft | 253 kts | 296° |
| 2026-04-12 06:41 | 46.74898 | 0.68314 | 4509 ft | 241 kts | 296° |
| 2026-04-12 06:41 | 46.75619 | 0.66170 | 4395 ft | 229 kts | 295° |
| 2026-04-12 06:41 | 46.76300 | 0.64132 | 4257 ft | 218 kts | 295° |
| 2026-04-12 06:42 | 46.76951 | 0.62189 | 4129 ft | 208 kts | 295° |
| 2026-04-12 06:42 | 46.77576 | 0.60327 | 3999 ft | 200 kts | 296° |
| 2026-04-12 06:42 | 46.78069 | 0.58479 | 3865 ft | 192 kts | 283° |
| 2026-04-12 06:42 | 46.78220 | 0.56613 | 3733 ft | 184 kts | 269° |
| 2026-04-12 06:43 | 46.78060 | 0.54796 | 3565 ft | 178 kts | 257° |
| 2026-04-12 06:43 | 46.77701 | 0.53039 | 3203 ft | 181 kts | 254° |
| 2026-04-12 06:43 | 46.77341 | 0.51291 | 3037 ft | 179 kts | 255° |
| 2026-04-12 06:43 | 46.76992 | 0.49598 | 2992 ft | 167 kts | 255° |
| 2026-04-12 06:44 | 46.76662 | 0.48001 | 3004 ft | 162 kts | 254° |
| 2026-04-12 06:44 | 46.76275 | 0.46498 | 3008 ft | 160 kts | 242° |
| 2026-04-12 06:44 | 46.75570 | 0.45234 | 3011 ft | 162 kts | 223° |
| 2026-04-12 06:44 | 46.74617 | 0.44335 | 3011 ft | 163 kts | 213° |
| 2026-04-12 06:45 | 46.73633 | 0.43494 | 3010 ft | 163 kts | 213° |
| 2026-04-12 06:45 | 46.72655 | 0.42654 | 3010 ft | 163 kts | 213° |
| 2026-04-12 06:45 | 46.71675 | 0.41810 | 3010 ft | 163 kts | 213° |
| 2026-04-12 06:45 | 46.70694 | 0.40968 | 2960 ft | 165 kts | 213° |
| 2026-04-12 06:46 | 46.69706 | 0.40116 | 2698 ft | 163 kts | 213° |
| 2026-04-12 06:46 | 46.68752 | 0.39295 | 2469 ft | 161 kts | 213° |
| 2026-04-12 06:46 | 46.67799 | 0.38475 | 2268 ft | 155 kts | 213° |
| 2026-04-12 06:46 | 46.66909 | 0.37711 | 2049 ft | 143 kts | 213° |
| 2026-04-12 06:47 | 46.66069 | 0.36989 | 1861 ft | 138 kts | 213° |
| 2026-04-12 06:47 | 46.65246 | 0.36280 | 1677 ft | 137 kts | 212° |
| 2026-04-12 06:47 | 46.64430 | 0.35578 | 1496 ft | 136 kts | 212° |
| 2026-04-12 06:47 | 46.63617 | 0.34879 | 1307 ft | 136 kts | 211° |
| 2026-04-12 06:48 | 46.62798 | 0.34173 | 1119 ft | 136 kts | 211° |
| 2026-04-12 06:48 | 46.61982 | 0.33472 | 949 ft | 136 kts | 210° |
| 2026-04-12 06:48 | 46.61166 | 0.32773 | 775 ft | 136 kts | 210° |
| 2026-04-12 06:48 | 46.60361 | 0.32091 | 599 ft | 135 kts | 210° |
| 2026-04-12 06:49 | 46.59555 | 0.31379 | 438 ft | 134 kts | 210° |
| 2026-04-12 06:49 | 46.58905 | 0.30820 | 417 ft | 67 kts | 210° |
| 2026-04-12 06:49 | 46.58714 | 0.30742 | 428 ft | 18 kts | 131° |
| 2026-04-12 06:49 | 46.58647 | 0.30875 | 427 ft | 8 kts | 122° |
| 2026-04-12 06:50 | 46.58636 | 0.30900 | 420 ft | 1 kts | 122° |
| 2026-04-12 06:50 | 46.58626 | 0.30942 | 424 ft | 11 kts | 97° |
| 2026-04-12 06:50 | 46.58600 | 0.31032 | 424 ft | 5 kts | 136° |
| 2026-04-12 06:50 | 46.58590 | 0.31021 | 422 ft | 1 kts | 256° |
| 2026-04-12 06:51 | 46.58589 | 0.31015 | 423 ft | 0 kts | 255° |
| 2026-04-12 06:51 | 46.58587 | 0.31006 | 427 ft | 0 kts | 255° |